Time;durP1;ratioP1;P1;durP2;ratioP2;P2;SDS_P1;SDS_P2;PMS_P1;PMS_P2;Temp;Humidity;BMP_temperature;BMP_pressure;BME280_temperature;BME280_humidity;BME280_pressure;Samples;Min_cycle;Max_cycle;Signal;HPM_P1;HPM_P2
2022/01/16 00:00:59;;;;;;;39.90;23.40;;;-1.80;99.90;;;;;;5032718;28;20198;-88
2022/01/16 00:06:09;;;;;;;42.07;23.97;;;-1.80;99.90;;;;;;5034023;28;20209;-89
2022/01/16 00:08:35;;;;;;;38.43;22.93;;;-1.80;99.90;;;;;;5033659;28;20190;-89
2022/01/16 00:11:11;;;;;;;42.27;22.87;;;-1.80;99.90;;;;;;5033475;28;20206;-89
2022/01/16 00:13:37;;;;;;;37.00;22.63;;;-1.80;99.90;;;;;;5017454;28;20178;-89
2022/01/16 00:16:03;;;;;;;36.93;22.83;;;-1.80;99.90;;;;;;5016978;28;20205;-89
2022/01/16 00:18:40;;;;;;;39.03;23.47;;;-1.80;99.90;;;;;;5033558;28;20182;-89
2022/01/16 00:21:06;;;;;;;44.20;24.03;;;-1.80;99.90;;;;;;5033752;28;20209;-89
2022/01/16 00:23:32;;;;;;;37.87;23.30;;;-1.70;99.90;;;;;;5033404;28;20198;-89
2022/01/16 00:25:58;;;;;;;41.17;23.30;;;-1.70;99.90;;;;;;5033241;28;20299;-89
2022/01/16 00:28:26;;;;;;;42.23;23.53;;;-1.70;99.90;;;;;;5032976;28;20179;-89
2022/01/16 00:30:52;;;;;;;42.27;24.27;;;-1.70;99.90;;;;;;5033084;28;20206;-89
2022/01/16 00:33:19;;;;;;;46.63;25.20;;;-1.70;99.90;;;;;;5033511;28;20178;-89
2022/01/16 00:35:45;;;;;;;46.10;24.90;;;-1.60;99.90;;;;;;5032374;28;20185;-89
2022/01/16 00:38:11;;;;;;;47.63;24.97;;;-1.60;99.90;;;;;;5032898;28;20182;-89
2022/01/16 00:40:37;;;;;;;53.27;30.17;;;-1.60;99.90;;;;;;5033090;28;20312;-89
2022/01/16 00:43:04;;;;;;;56.77;29.20;;;-1.60;99.90;;;;;;5033301;28;20269;-89
2022/01/16 00:45:34;;;;;;;50.43;28.13;;;-1.50;99.90;;;;;;5032879;28;20187;-89
2022/01/16 00:48:04;;;;;;;59.97;29.13;;;-1.50;99.90;;;;;;5032791;28;20271;-89
2022/01/16 00:50:31;;;;;;;46.13;26.23;;;-1.50;99.90;;;;;;5032754;28;20228;-89
2022/01/16 00:52:57;;;;;;;49.63;26.93;;;-1.50;99.90;;;;;;5032926;28;20178;-89
2022/01/16 00:55:23;;;;;;;47.17;25.50;;;-1.50;99.90;;;;;;5032725;28;20179;-89
2022/01/16 00:57:49;;;;;;;95.27;34.23;;;-1.60;99.90;;;;;;5032744;28;20239;-89
2022/01/16 01:00:16;;;;;;;63.90;27.37;;;-1.70;99.90;;;;;;5032963;28;20189;-89
2022/01/16 01:02:42;;;;;;;95.37;32.53;;;-1.90;99.90;;;;;;5035155;28;20221;-89
2022/01/16 01:05:08;;;;;;;66.40;28.97;;;-1.90;99.90;;;;;;5052503;28;20654;-89
2022/01/16 01:07:35;;;;;;;67.80;30.33;;;-2.00;99.90;;;;;;5052016;28;20201;-89
2022/01/16 01:10:06;;;;;;;83.40;30.37;;;-2.00;99.90;;;;;;5052520;28;20174;-89
2022/01/16 01:12:51;;;;;;;59.27;26.33;;;-2.20;99.90;;;;;;5036051;28;20198;-89
2022/01/16 01:18:35;;;;;;;81.57;30.43;;;-2.20;99.90;;;;;;5051980;28;20193;-89
2022/01/16 01:21:05;;;;;;;66.70;31.13;;;-2.30;99.90;;;;;;5035751;28;20565;-89
2022/01/16 01:23:31;;;;;;;75.30;33.57;;;-2.30;99.90;;;;;;5052145;28;20228;-89
2022/01/16 01:25:57;;;;;;;74.30;34.13;;;-2.30;99.90;;;;;;5035900;28;20202;-89
2022/01/16 01:28:23;;;;;;;81.77;35.40;;;-2.20;99.90;;;;;;5035312;28;20216;-89
2022/01/16 01:30:48;;;;;;;90.07;39.03;;;-2.20;99.90;;;;;;5035501;28;20229;-90
2022/01/16 01:33:18;;;;;;;72.43;34.87;;;-2.10;99.90;;;;;;5051975;28;20169;-88
2022/01/16 01:35:44;;;;;;;71.30;33.83;;;-2.00;99.90;;;;;;5052159;28;20190;-89
2022/01/16 01:38:11;;;;;;;75.93;34.07;;;-2.00;99.90;;;;;;5035395;28;20189;-89
2022/01/16 01:40:39;;;;;;;67.67;31.93;;;-1.90;99.90;;;;;;5035347;28;20182;-89
2022/01/16 01:51:09;;;;;;;54.17;28.33;;;-1.80;99.90;;;;;;5051916;28;20269;-89
2022/01/16 01:53:37;;;;;;;58.87;28.73;;;-1.80;99.90;;;;;;5051884;28;20185;-89
2022/01/16 01:56:05;;;;;;;68.67;33.37;;;-1.70;99.90;;;;;;5035397;28;20239;-89
2022/01/16 01:58:31;;;;;;;59.70;29.27;;;-1.70;99.90;;;;;;5034757;28;20176;-89
2022/01/16 02:00:57;;;;;;;49.43;27.07;;;-1.80;99.90;;;;;;5035119;28;20197;-89
2022/01/16 02:03:42;;;;;;;56.67;28.37;;;-1.90;99.90;;;;;;5035378;28;20173;-89
2022/01/16 02:06:21;;;;;;;49.13;27.23;;;-1.90;99.90;;;;;;5051544;28;20233;-89
2022/01/16 02:09:03;;;;;;;63.63;28.50;;;-1.90;99.90;;;;;;5051382;28;20178;-88
2022/01/16 02:15:36;;;;;;;57.17;28.70;;;-2.00;99.90;;;;;;5052785;28;20606;-89
2022/01/16 02:31:44;;;;;;;54.23;25.77;;;-1.80;99.90;;;;;;5051275;28;20204;-89
2022/01/16 02:36:59;;;;;;;48.10;26.70;;;-1.80;99.90;;;;;;5031286;28;20182;-89
2022/01/16 02:39:28;;;;;;;51.70;26.67;;;-1.80;99.90;;;;;;5031524;28;20190;-89
2022/01/16 02:41:55;;;;;;;50.57;26.23;;;-1.80;99.90;;;;;;5031284;28;20229;-89
2022/01/16 02:46:52;;;;;;;51.73;25.20;;;-1.90;99.90;;;;;;5031699;28;20205;-89
2022/01/16 02:49:33;;;;;;;46.33;25.13;;;-2.00;99.90;;;;;;5031177;28;20183;-89
2022/01/16 02:52:06;;;;;;;45.07;25.17;;;-2.00;99.90;;;;;;5031712;28;20202;-89
2022/01/16 02:54:36;;;;;;;44.60;24.57;;;-2.00;99.90;;;;;;5014815;28;20174;-89
2022/01/16 02:57:03;;;;;;;42.03;23.67;;;-2.00;99.90;;;;;;5031334;28;20190;-88
2022/01/16 02:59:30;;;;;;;36.87;22.03;;;-1.90;99.90;;;;;;5032875;28;20183;-89
2022/01/16 03:01:56;;;;;;;37.97;22.57;;;-2.00;99.90;;;;;;5034945;28;20207;-89
2022/01/16 03:04:22;;;;;;;36.60;22.00;;;-2.00;99.90;;;;;;5051549;28;20196;-89
2022/01/16 03:06:48;;;;;;;34.60;22.97;;;-2.00;99.90;;;;;;5038218;28;20573;-88
2022/01/16 03:09:19;;;;;;;35.43;21.13;;;-2.00;99.90;;;;;;5037867;28;20182;-88
2022/01/16 03:11:56;;;;;;;29.03;19.73;;;-2.00;99.90;;;;;;5054623;28;20560;-88
2022/01/16 03:14:22;;;;;;;30.77;19.00;;;-2.00;99.90;;;;;;5038681;28;20166;-89
2022/01/16 03:16:52;;;;;;;29.07;17.67;;;-2.00;99.90;;;;;;5054826;28;20216;-89
2022/01/16 03:22:15;;;;;;;31.93;18.07;;;-2.00;99.90;;;;;;5054523;28;20288;-89
2022/01/16 03:24:44;;;;;;;34.20;19.43;;;-2.10;99.90;;;;;;5038086;28;20202;-89
2022/01/16 03:27:15;;;;;;;47.37;18.87;;;-2.00;99.90;;;;;;5054209;28;20214;-89
2022/01/16 03:29:45;;;;;;;36.77;18.50;;;-2.10;99.90;;;;;;5037482;28;20181;-89
2022/01/16 03:32:29;;;;;;;30.07;18.17;;;-2.20;99.90;;;;;;5054507;28;20194;-89
2022/01/16 03:34:55;;;;;;;29.97;18.53;;;-2.30;99.90;;;;;;5037758;28;20249;-89
2022/01/16 03:37:21;;;;;;;49.60;21.30;;;-2.30;99.90;;;;;;5037837;28;20653;-89
2022/01/16 03:39:47;;;;;;;34.90;21.97;;;-2.30;99.90;;;;;;5037812;28;20192;-89
2022/01/16 03:42:12;;;;;;;34.63;21.00;;;-2.30;99.90;;;;;;5037599;28;20206;-89
2022/01/16 03:44:38;;;;;;;34.57;20.97;;;-2.30;99.90;;;;;;5054483;28;20196;-89
2022/01/16 03:47:05;;;;;;;33.93;20.63;;;-2.30;99.90;;;;;;5037378;28;20308;-89
2022/01/16 03:49:32;;;;;;;41.93;21.90;;;-2.40;99.90;;;;;;5037412;28;20182;-89
2022/01/16 03:51:59;;;;;;;35.13;21.07;;;-2.40;99.90;;;;;;5054177;28;20198;-88
2022/01/16 03:54:28;;;;;;;33.90;19.83;;;-2.30;99.90;;;;;;5037287;28;20201;-88
2022/01/16 03:56:55;;;;;;;37.07;21.17;;;-2.30;99.90;;;;;;5053917;28;20174;-88
2022/01/16 03:59:21;;;;;;;33.03;19.77;;;-2.30;99.90;;;;;;5037334;28;20243;-89
2022/01/16 04:01:47;;;;;;;37.07;20.40;;;-2.20;99.90;;;;;;5053703;28;20208;-89
2022/01/16 04:04:13;;;;;;;48.80;23.47;;;-2.30;99.90;;;;;;5053711;28;20178;-89
2022/01/16 04:06:39;;;;;;;49.37;21.53;;;-2.30;99.90;;;;;;5053903;28;20209;-89
2022/01/16 04:09:05;;;;;;;45.80;22.77;;;-2.30;99.90;;;;;;5053901;28;20545;-89
2022/01/16 04:11:32;;;;;;;37.60;22.00;;;-2.30;99.90;;;;;;5036492;28;20202;-88
2022/01/16 04:14:08;;;;;;;30.40;18.97;;;-2.30;99.90;;;;;;5037468;28;20178;-89
2022/01/16 04:16:35;;;;;;;35.90;19.43;;;-2.30;99.90;;;;;;5053747;28;20173;-88
2022/01/16 04:19:02;;;;;;;31.97;19.53;;;-2.30;99.90;;;;;;5036486;28;20201;-89
2022/01/16 04:21:28;;;;;;;34.37;19.43;;;-2.40;99.90;;;;;;5053187;28;20197;-89
2022/01/16 04:23:55;;;;;;;28.67;18.30;;;-2.40;99.90;;;;;;5036640;28;20308;-89
2022/01/16 04:26:25;;;;;;;26.60;17.93;;;-2.50;99.90;;;;;;5036728;28;20206;-89
2022/01/16 04:28:55;;;;;;;47.87;18.97;;;-2.40;99.90;;;;;;5053169;28;20190;-88
2022/01/16 04:31:21;;;;;;;61.97;20.63;;;-2.60;99.90;;;;;;5036780;28;20194;-89
2022/01/16 04:33:47;;;;;;;26.97;17.27;;;-2.70;99.90;;;;;;5036341;28;20631;-88
2022/01/16 04:36:14;;;;;;;27.73;18.60;;;-2.70;99.90;;;;;;5053300;28;20323;-89
2022/01/16 04:38:45;;;;;;;39.93;19.10;;;-2.70;99.90;;;;;;5036385;28;20182;-88
2022/01/16 04:44:01;;;;;;;27.77;16.77;;;-2.80;99.90;;;;;;5053267;28;20260;-88
2022/01/16 04:46:30;;;;;;;33.93;17.80;;;-2.70;99.90;;;;;;5036305;28;20232;-89
2022/01/16 04:48:57;;;;;;;24.37;16.73;;;-2.70;99.90;;;;;;5036189;28;20178;-89
2022/01/16 04:51:24;;;;;;;30.20;18.60;;;-2.70;99.90;;;;;;5052554;28;20202;-88
2022/01/16 04:53:50;;;;;;;24.20;15.97;;;-2.80;99.90;;;;;;5052576;28;20212;-89
2022/01/16 04:56:16;;;;;;;48.17;18.93;;;-2.90;99.90;;;;;;5036240;28;20189;-89
2022/01/16 04:58:43;;;;;;;40.50;17.80;;;-2.90;99.90;;;;;;5036115;28;20669;-88
2022/01/16 05:01:15;;;;;;;52.10;18.77;;;-3.00;99.90;;;;;;5035664;28;20209;-88
2022/01/16 05:03:41;;;;;;;27.67;15.90;;;-3.10;99.90;;;;;;5052531;28;20177;-89
2022/01/16 05:06:07;;;;;;;24.93;16.43;;;-3.10;99.90;;;;;;5052567;28;20251;-88
2022/01/16 05:08:33;;;;;;;25.40;16.30;;;-3.10;99.90;;;;;;5035740;28;20197;-88
2022/01/16 05:11:00;;;;;;;30.63;17.77;;;-3.10;99.90;;;;;;5035867;28;20186;-89
2022/01/16 05:18:54;;;;;;;27.40;16.17;;;-3.10;99.90;;;;;;5052335;28;20173;-88
2022/01/16 05:21:20;;;;;;;33.30;18.13;;;-3.10;99.90;;;;;;5035001;28;20198;-89
2022/01/16 05:23:47;;;;;;;26.23;16.00;;;-3.00;99.90;;;;;;5052116;28;20193;-89
2022/01/16 05:26:17;;;;;;;29.23;17.90;;;-3.10;99.90;;;;;;5052193;28;20250;-89
2022/01/16 05:28:43;;;;;;;32.67;17.67;;;-3.20;99.90;;;;;;5052483;28;20219;-89
2022/01/16 05:31:25;;;;;;;35.60;17.97;;;-3.10;99.90;;;;;;5051982;28;20202;-88
2022/01/16 05:33:51;;;;;;;29.40;17.10;;;-3.10;99.90;;;;;;5052275;28;20177;-88
2022/01/16 05:36:20;;;;;;;31.20;18.50;;;-3.10;99.90;;;;;;5051698;28;20182;-88
2022/01/16 05:38:46;;;;;;;36.43;18.00;;;-3.00;99.90;;;;;;5051886;28;20186;-89
2022/01/16 05:41:12;;;;;;;29.73;17.50;;;-3.00;99.90;;;;;;5035329;28;20210;-89
2022/01/16 05:43:38;;;;;;;32.27;20.63;;;-3.00;99.90;;;;;;5035089;28;20174;-89
2022/01/16 05:46:04;;;;;;;38.43;18.10;;;-3.10;99.90;;;;;;5035176;28;20204;-89
2022/01/16 05:48:31;;;;;;;26.10;16.93;;;-3.10;99.90;;;;;;5035128;28;20185;-88
2022/01/16 05:50:57;;;;;;;34.83;18.07;;;-3.10;99.90;;;;;;5051622;28;20201;-89
2022/01/16 05:53:23;;;;;;;52.67;18.90;;;-3.20;99.90;;;;;;5051932;28;20264;-89
2022/01/16 05:55:48;;;;;;;24.23;16.97;;;-3.40;99.90;;;;;;5052021;28;20174;-89
2022/01/16 05:58:15;;;;;;;26.73;18.00;;;-3.40;99.90;;;;;;5034963;28;20204;-89
2022/01/16 06:00:44;;;;;;;26.03;17.57;;;-3.40;99.90;;;;;;5035188;28;20186;-88
2022/01/16 06:03:10;;;;;;;29.70;16.87;;;-3.40;99.90;;;;;;5051542;28;20195;-88
2022/01/16 06:05:35;;;;;;;30.77;17.20;;;-3.30;99.90;;;;;;5051710;28;20174;-88
2022/01/16 06:08:09;;;;;;;25.23;16.87;;;-3.40;99.90;;;;;;5034143;28;20275;-88
2022/01/16 06:10:35;;;;;;;28.03;16.47;;;-3.40;99.90;;;;;;5051241;28;20182;-88
2022/01/16 06:13:07;;;;;;;26.83;17.00;;;-3.40;99.90;;;;;;5035037;28;20273;-89
2022/01/16 06:15:34;;;;;;;24.40;16.87;;;-3.40;99.90;;;;;;5051417;28;20182;-89
2022/01/16 06:18:00;;;;;;;26.63;16.70;;;-3.40;99.90;;;;;;5034777;28;20182;-88
2022/01/16 06:20:27;;;;;;;26.50;18.00;;;-3.30;99.90;;;;;;5051663;28;20185;-87
2022/01/16 06:22:53;;;;;;;27.33;17.13;;;-3.30;99.90;;;;;;5034692;28;20204;-88
2022/01/16 06:25:20;;;;;;;27.47;16.83;;;-3.30;99.90;;;;;;5051241;28;20257;-89
2022/01/16 06:27:46;;;;;;;25.83;16.77;;;-3.40;99.90;;;;;;5034450;28;20212;-89
2022/01/16 06:30:21;;;;;;;25.30;16.30;;;-3.60;99.90;;;;;;5034512;28;20174;-89
2022/01/16 06:32:47;;;;;;;26.60;17.13;;;-3.70;99.90;;;;;;5051128;28;20288;-89
2022/01/16 06:35:16;;;;;;;38.97;17.63;;;-3.60;99.90;;;;;;5037707;28;20256;-89
2022/01/16 06:37:43;;;;;;;27.50;17.63;;;-3.70;99.90;;;;;;5055224;28;20178;-89
2022/01/16 06:40:11;;;;;;;26.50;16.70;;;-3.90;99.90;;;;;;5038877;28;20182;-89
2022/01/16 06:42:38;;;;;;;27.90;18.00;;;-3.80;99.90;;;;;;5055306;28;20224;-89
2022/01/16 06:45:07;;;;;;;34.30;18.60;;;-3.90;99.90;;;;;;5055203;28;20177;-89
2022/01/16 06:47:33;;;;;;;30.57;16.60;;;-4.00;99.90;;;;;;5038390;28;20209;-89
2022/01/16 06:49:58;;;;;;;30.87;18.37;;;-4.30;99.90;;;;;;5038488;28;20185;-89
2022/01/16 06:52:24;;;;;;;44.93;19.77;;;-4.50;99.90;;;;;;5055255;28;20247;-88
2022/01/16 06:54:50;;;;;;;35.07;19.27;;;-4.50;99.90;;;;;;5038683;28;20177;-88
2022/01/16 06:57:16;;;;;;;26.97;17.40;;;-4.50;99.90;;;;;;5038319;28;20184;-88
2022/01/16 06:59:45;;;;;;;30.93;19.53;;;-4.40;99.90;;;;;;5037946;28;20182;-89
2022/01/16 07:02:25;;;;;;;29.27;18.40;;;-4.40;99.90;;;;;;5054720;28;20202;-89
2022/01/16 07:04:51;;;;;;;29.80;18.83;;;-4.40;99.90;;;;;;5018441;28;20178;-88
2022/01/16 07:07:16;;;;;;;28.27;17.90;;;-4.40;99.90;;;;;;5035097;28;20202;-88
2022/01/16 07:09:43;;;;;;;29.63;18.20;;;-4.40;99.90;;;;;;5034788;28;20205;-89
2022/01/16 07:12:15;;;;;;;29.43;17.97;;;-4.30;99.90;;;;;;5018074;28;20195;-89
2022/01/16 07:14:41;;;;;;;29.67;18.03;;;-4.20;99.90;;;;;;5035112;28;20237;-89
2022/01/16 07:17:07;;;;;;;27.47;17.37;;;-4.20;99.90;;;;;;5034648;28;20204;-89
2022/01/16 07:19:33;;;;;;;32.03;20.07;;;-4.10;99.90;;;;;;5034574;28;20190;-88
2022/01/16 07:21:59;;;;;;;28.90;17.83;;;-4.10;99.90;;;;;;5033884;28;20202;-89
2022/01/16 07:24:25;;;;;;;28.07;18.33;;;-4.20;99.90;;;;;;5034219;28;20244;-89
2022/01/16 07:26:50;;;;;;;31.43;18.83;;;-4.10;99.90;;;;;;5034558;28;20683;-89
2022/01/16 07:29:16;;;;;;;28.40;17.40;;;-4.00;99.90;;;;;;5034590;28;20206;-89
2022/01/16 07:31:42;;;;;;;28.53;17.73;;;-4.00;99.90;;;;;;5034233;28;20234;-87
2022/01/16 07:34:09;;;;;;;28.57;17.73;;;-4.10;99.90;;;;;;5048475;28;20186;-88
2022/01/16 07:36:35;;;;;;;26.60;17.60;;;-4.10;99.90;;;;;;5037955;28;20204;-89
2022/01/16 07:39:02;;;;;;;28.97;18.17;;;-4.00;99.90;;;;;;5037441;28;20189;-89
2022/01/16 07:41:28;;;;;;;27.87;18.03;;;-3.90;99.90;;;;;;5054615;28;20224;-89
2022/01/16 07:43:53;;;;;;;28.43;17.93;;;-3.90;99.90;;;;;;5038099;28;20182;-88
2022/01/16 07:46:19;;;;;;;26.40;17.80;;;-3.80;99.90;;;;;;5029470;28;20206;-89
2022/01/16 07:48:45;;;;;;;30.13;18.70;;;-3.80;99.90;;;;;;5050739;28;20178;-89
2022/01/16 07:51:11;;;;;;;27.93;18.23;;;-3.70;99.90;;;;;;5051173;28;20209;-90
2022/01/16 07:53:37;;;;;;;31.23;18.60;;;-3.60;99.90;;;;;;5051585;28;20182;-89
2022/01/16 07:56:04;;;;;;;30.47;18.30;;;-3.50;99.90;;;;;;5051032;28;20700;-89
2022/01/16 07:58:30;;;;;;;27.33;17.73;;;-3.40;99.90;;;;;;5050435;28;20175;-89
2022/01/16 08:01:03;;;;;;;28.93;18.40;;;-3.40;99.90;;;;;;5050098;28;20199;-89
2022/01/16 08:04:05;;;;;;;31.10;19.77;;;-3.40;99.90;;;;;;5053641;28;20190;-89
2022/01/16 08:06:31;;;;;;;29.50;17.80;;;-3.30;99.90;;;;;;5037168;28;20213;-89
2022/01/16 08:08:57;;;;;;;26.83;18.10;;;-3.20;99.90;;;;;;5039982;28;20294;-89
2022/01/16 08:11:23;;;;;;;31.63;18.93;;;-3.20;99.90;;;;;;5037442;28;20201;-89
2022/01/16 08:13:49;;;;;;;29.37;18.83;;;-3.20;99.90;;;;;;5037152;28;20182;-89
2022/01/16 08:16:15;;;;;;;31.80;20.17;;;-3.10;99.90;;;;;;5038476;28;20181;-89
2022/01/16 08:18:41;;;;;;;30.03;18.73;;;-3.00;99.90;;;;;;5041256;28;20170;-89
2022/01/16 08:21:07;;;;;;;31.47;18.37;;;-3.00;99.90;;;;;;5039228;28;20225;-89
2022/01/16 08:23:33;;;;;;;34.07;20.80;;;-3.00;99.90;;;;;;5037434;28;20229;-89
2022/01/16 08:26:07;;;;;;;29.87;18.67;;;-2.90;99.90;;;;;;5039308;28;20207;-88
2022/01/16 08:28:35;;;;;;;32.50;19.30;;;-2.80;99.90;;;;;;5052275;28;20216;-88
2022/01/16 08:31:01;;;;;;;30.83;19.40;;;-2.70;99.90;;;;;;5036410;28;20238;-88
2022/01/16 08:33:27;;;;;;;31.47;18.37;;;-2.50;99.90;;;;;;5030946;28;20583;-88
2022/01/16 08:35:56;;;;;;;33.13;17.97;;;-2.40;99.90;;;;;;5034265;28;20174;-88
2022/01/16 08:38:22;;;;;;;34.43;20.03;;;-2.20;99.90;;;;;;5018054;28;20197;-88
2022/01/16 08:40:48;;;;;;;32.77;20.47;;;-2.00;99.90;;;;;;5036745;28;20364;-88
2022/01/16 08:43:14;;;;;;;33.57;18.87;;;-1.80;99.90;;;;;;5036416;28;20193;-88
2022/01/16 08:45:57;;;;;;;33.47;20.13;;;-1.50;99.90;;;;;;5036710;28;20261;-88
2022/01/16 08:48:23;;;;;;;35.97;18.83;;;-1.20;99.90;;;;;;5020908;28;20248;-88
2022/01/16 08:50:49;;;;;;;33.00;18.50;;;-1.00;99.90;;;;;;5033122;28;20693;-88
2022/01/16 08:53:15;;;;;;;31.93;17.80;;;-0.80;99.90;;;;;;5033131;28;20270;-88
2022/01/16 08:55:44;;;;;;;31.30;17.50;;;-0.70;99.90;;;;;;5033068;28;20183;-89
2022/01/16 08:58:13;;;;;;;27.20;17.23;;;-0.50;99.90;;;;;;5045420;28;20192;-88
2022/01/16 09:00:43;;;;;;;26.63;16.33;;;-0.50;99.90;;;;;;5052822;28;20200;-88
2022/01/16 09:03:09;;;;;;;30.40;18.27;;;-0.40;99.90;;;;;;5036581;28;20188;-88
2022/01/16 09:05:35;;;;;;;24.77;15.67;;;-0.30;99.90;;;;;;5053118;28;20178;-88
2022/01/16 09:08:02;;;;;;;25.63;16.07;;;-0.30;99.90;;;;;;5036594;28;20293;-88
2022/01/16 09:10:27;;;;;;;28.23;16.80;;;-0.30;99.90;;;;;;5036280;28;20179;-88
2022/01/16 09:12:53;;;;;;;25.33;16.67;;;-0.20;99.90;;;;;;5036511;28;20175;-88
2022/01/16 09:15:20;;;;;;;27.90;17.73;;;-0.20;99.90;;;;;;5036518;28;20175;-89
2022/01/16 09:17:47;;;;;;;29.43;18.60;;;-0.20;99.90;;;;;;5036098;28;20179;-89
2022/01/16 09:20:13;;;;;;;26.80;16.63;;;-0.10;99.90;;;;;;5036854;28;20699;-90
2022/01/16 09:22:44;;;;;;;47.13;30.67;;;-0.10;99.90;;;;;;5036129;28;20694;-90
2022/01/16 09:25:11;;;;;;;36.40;21.97;;;0.00;99.90;;;;;;5036507;28;20240;-89
2022/01/16 09:27:38;;;;;;;29.67;18.07;;;0.00;99.90;;;;;;5035796;28;20285;-90
2022/01/16 09:30:33;;;;;;;27.33;18.70;;;0.10;99.90;;;;;;5036113;28;20178;-89
2022/01/16 09:32:59;;;;;;;30.13;17.97;;;0.20;99.90;;;;;;5036324;28;20228;-89
2022/01/16 09:35:25;;;;;;;27.73;17.97;;;0.40;99.90;;;;;;5036098;28;20830;-89
2022/01/16 09:37:51;;;;;;;27.13;18.03;;;0.50;99.90;;;;;;5036087;28;20215;-89
2022/01/16 09:40:20;;;;;;;25.37;17.27;;;0.70;99.90;;;;;;5036084;28;20213;-89
2022/01/16 09:42:46;;;;;;;27.57;17.53;;;0.80;99.90;;;;;;5052313;28;20204;-89
2022/01/16 09:45:15;;;;;;;27.20;17.83;;;0.90;99.90;;;;;;5039285;28;20230;-89
2022/01/16 09:47:43;;;;;;;26.53;16.60;;;1.00;99.90;;;;;;5049064;28;20231;-89
2022/01/16 09:50:11;;;;;;;29.07;17.50;;;1.20;99.90;;;;;;5032864;28;20177;-88
2022/01/16 09:52:42;;;;;;;26.87;16.80;;;1.20;99.90;;;;;;5032615;28;20250;-89
2022/01/16 09:55:08;;;;;;;27.37;17.87;;;1.40;99.90;;;;;;5032424;28;20177;-88
2022/01/16 09:57:35;;;;;;;23.77;15.73;;;1.40;99.90;;;;;;5032273;28;20186;-89
2022/01/16 10:00:06;;;;;;;26.30;16.93;;;1.60;99.90;;;;;;5032237;28;20189;-88
2022/01/16 10:02:32;;;;;;;29.03;17.13;;;1.70;99.90;;;;;;5034008;28;20236;-89
2022/01/16 10:04:58;;;;;;;27.77;17.63;;;1.80;99.90;;;;;;5035813;28;20242;-89
2022/01/16 10:07:23;;;;;;;26.27;16.17;;;1.90;99.90;;;;;;5035484;28;20308;-88
2022/01/16 10:10:11;;;;;;;27.37;17.60;;;2.00;99.90;;;;;;5035394;28;20216;-89
2022/01/16 10:12:45;;;;;;;32.50;19.17;;;2.00;99.90;;;;;;5052323;28;20201;-89
2022/01/16 10:15:16;;;;;;;29.37;17.80;;;2.10;99.90;;;;;;5052175;28;20177;-89
2022/01/16 10:17:55;;;;;;;29.50;18.63;;;2.20;99.90;;;;;;5051927;28;20218;-89
2022/01/16 10:20:22;;;;;;;29.50;16.97;;;2.20;99.90;;;;;;5035404;28;20188;-89
2022/01/16 10:22:52;;;;;;;29.50;18.07;;;2.30;99.90;;;;;;5035540;28;20198;-89
2022/01/16 10:25:39;;;;;;;26.47;16.90;;;2.40;99.90;;;;;;5026856;28;20288;-89
2022/01/16 10:28:22;;;;;;;29.20;18.00;;;2.50;99.90;;;;;;5047636;28;20206;-89
2022/01/16 10:30:50;;;;;;;32.00;18.37;;;2.60;99.90;;;;;;5051932;28;20205;-89
2022/01/16 10:33:21;;;;;;;28.07;18.70;;;2.60;99.90;;;;;;5064459;28;20185;-89
2022/01/16 10:35:50;;;;;;;31.07;19.40;;;2.70;99.90;;;;;;5035226;28;20570;-89
2022/01/16 10:38:28;;;;;;;33.87;19.40;;;2.80;99.90;;;;;;5051927;28;20200;-89
2022/01/16 10:40:57;;;;;;;30.90;17.73;;;2.80;99.90;;;;;;5035597;28;20209;-89
2022/01/16 10:43:40;;;;;;;27.23;17.60;;;2.90;99.90;;;;;;5035186;28;20189;-89
2022/01/16 10:46:07;;;;;;;27.10;16.67;;;3.00;99.90;;;;;;5051581;28;20185;-89
2022/01/16 10:48:33;;;;;;;28.40;17.90;;;3.00;99.90;;;;;;5034921;28;20663;-89
2022/01/16 10:51:00;;;;;;;28.37;17.70;;;3.10;99.90;;;;;;5034031;28;20197;-89
2022/01/16 10:53:29;;;;;;;25.43;17.33;;;3.10;99.90;;;;;;5051678;28;20265;-89
2022/01/16 10:55:56;;;;;;;27.37;17.37;;;3.10;99.90;;;;;;5035190;28;20174;-89
2022/01/16 10:58:27;;;;;;;27.87;17.77;;;3.20;99.90;;;;;;5035157;28;20209;-89
2022/01/16 11:01:03;;;;;;;28.87;18.20;;;3.30;99.90;;;;;;5035263;28;20276;-89
2022/01/16 11:03:45;;;;;;;29.20;17.57;;;3.40;99.90;;;;;;5049811;28;20173;-89
2022/01/16 11:06:12;;;;;;;28.97;17.80;;;3.50;99.90;;;;;;5034876;28;20178;-89
2022/01/16 11:08:38;;;;;;;26.00;17.67;;;3.60;99.90;;;;;;5034664;28;20185;-89
2022/01/16 11:11:06;;;;;;;29.00;18.27;;;3.60;99.90;;;;;;5035194;28;20197;-89
2022/01/16 11:13:35;;;;;;;31.73;18.10;;;3.60;99.90;;;;;;5035258;28;20224;-89
2022/01/16 11:16:07;;;;;;;30.77;18.83;;;3.70;99.90;;;;;;5034756;28;20182;-89
2022/01/16 11:18:40;;;;;;;29.73;17.80;;;3.80;99.90;;;;;;5034682;28;20182;-89
2022/01/16 11:24:11;;;;;;;29.63;18.00;;;3.90;99.90;;;;;;5054612;28;20200;-89
2022/01/16 11:26:35;;;;;;;25.20;16.47;;;4.00;99.90;;;;;;5054655;28;20259;-89
2022/01/16 11:29:01;;;;;;;27.67;18.43;;;4.10;99.90;;;;;;5038538;28;20201;-87
2022/01/16 11:31:27;;;;;;;34.93;18.90;;;4.20;99.90;;;;;;5038595;28;20244;-89
2022/01/16 11:33:53;;;;;;;33.37;19.27;;;4.30;99.90;;;;;;5026082;28;20194;-91
2022/01/16 11:36:23;;;;;;;29.10;17.83;;;4.40;99.90;;;;;;5035398;28;20235;-91
2022/01/16 11:38:59;;;;;;;27.07;17.60;;;4.50;99.90;;;;;;5034917;28;20261;-91
2022/01/16 11:41:34;;;;;;;26.23;17.23;;;4.60;99.90;;;;;;5035205;28;20201;-90
2022/01/16 11:44:04;;;;;;;27.20;17.23;;;4.70;99.90;;;;;;5037867;28;20236;-94
2022/01/16 11:46:39;;;;;;;24.43;16.27;;;4.90;99.90;;;;;;5041954;28;20207;-93
2022/01/16 11:49:06;;;;;;;25.40;15.77;;;4.90;99.90;;;;;;5034565;28;20256;-89
2022/01/16 11:51:35;;;;;;;28.60;16.90;;;5.10;99.90;;;;;;5034861;28;20192;-89
2022/01/16 11:54:22;;;;;;;24.07;15.90;;;5.20;99.90;;;;;;5040002;28;20528;-89
2022/01/16 12:00:43;;;;;;;23.77;14.50;;;5.30;99.90;;;;;;5055786;28;20244;-88
2022/01/16 12:03:35;;;;;;;24.17;15.67;;;5.40;99.90;;;;;;5037993;28;20180;-88
2022/01/16 12:06:31;;;;;;;23.93;14.93;;;5.40;99.90;;;;;;5038741;28;20191;-89
2022/01/16 12:08:58;;;;;;;21.53;15.20;;;5.40;99.90;;;;;;5038031;28;20191;-83
2022/01/16 12:11:38;;;;;;;23.27;15.33;;;5.50;99.90;;;;;;5042547;28;20208;-83
2022/01/16 12:14:06;;;;;;;23.80;15.47;;;5.50;99.90;;;;;;5034777;28;20273;-84
2022/01/16 12:16:35;;;;;;;23.67;14.63;;;5.60;99.90;;;;;;5017986;28;20215;-91
2022/01/16 12:19:41;;;;;;;21.57;14.83;;;5.60;99.90;;;;;;5038157;28;20180;-87
2022/01/16 12:22:08;;;;;;;22.93;15.53;;;5.40;99.90;;;;;;5051782;28;20226;-89
2022/01/16 12:24:36;;;;;;;21.43;13.90;;;5.40;99.90;;;;;;5017671;28;20193;-88
2022/01/16 12:27:27;;;;;;;22.03;15.57;;;5.50;99.90;;;;;;5019060;28;20215;-88
2022/01/16 12:30:27;;;;;;;25.90;15.73;;;5.50;99.90;;;;;;5020308;28;20180;-88
2022/01/16 12:33:11;;;;;;;22.57;14.30;;;5.60;99.90;;;;;;5017318;28;20165;-88
2022/01/16 12:35:50;;;;;;;21.63;13.33;;;5.60;99.90;;;;;;5016742;28;20166;-88
2022/01/16 12:38:24;;;;;;;22.33;14.30;;;5.70;99.90;;;;;;5016770;28;20306;-88
2022/01/16 12:41:03;;;;;;;20.70;13.77;;;5.80;99.90;;;;;;5016780;28;20232;-88
2022/01/16 12:45:56;;;;;;;23.23;15.13;;;5.90;99.90;;;;;;5033261;28;20179;-88
2022/01/16 12:48:22;;;;;;;20.30;14.47;;;5.90;99.90;;;;;;5016228;28;20208;-88
2022/01/16 12:50:49;;;;;;;23.47;14.63;;;6.00;99.90;;;;;;5016364;28;20340;-88
2022/01/16 12:53:51;;;;;;;19.47;13.10;;;6.00;99.90;;;;;;5016370;28;20180;-88
2022/01/16 12:56:22;;;;;;;19.63;13.43;;;6.00;99.90;;;;;;5016706;28;20271;-88
2022/01/16 12:58:51;;;;;;;21.00;14.00;;;6.00;99.90;;;;;;5016694;28;20192;-91
2022/01/16 13:01:17;;;;;;;24.63;16.20;;;6.10;99.90;;;;;;5029144;28;20201;-88
2022/01/16 13:03:45;;;;;;;23.47;14.77;;;6.10;99.90;;;;;;5034750;28;20196;-90
2022/01/16 13:06:22;;;;;;;20.90;14.07;;;6.10;99.90;;;;;;5016574;28;20182;-89
2022/01/16 13:09:09;;;;;;;25.73;15.70;;;6.10;99.90;;;;;;5033286;28;20253;-90
2022/01/16 13:11:39;;;;;;;16.73;11.50;;;6.10;99.90;;;;;;5035875;28;20204;-89
2022/01/16 13:14:09;;;;;;;21.97;13.90;;;6.00;99.90;;;;;;5033208;28;20197;-81
2022/01/16 13:16:56;;;;;;;20.47;13.80;;;5.90;99.90;;;;;;5032870;28;20184;-86
2022/01/16 13:19:28;;;;;;;19.77;13.77;;;5.70;99.90;;;;;;5033317;28;20175;-90
2022/01/16 13:22:11;;;;;;;18.33;12.00;;;5.40;99.90;;;;;;5044611;28;20216;-89
2022/01/16 13:25:03;;;;;;;20.43;12.73;;;5.30;99.90;;;;;;5036027;28;20188;-89
2022/01/16 13:27:34;;;;;;;20.20;12.97;;;5.00;99.90;;;;;;5026168;28;20200;-90
2022/01/16 13:30:25;;;;;;;18.10;12.47;;;4.70;99.90;;;;;;5032171;28;20212;-90
2022/01/16 13:33:30;;;;;;;17.70;12.00;;;4.60;99.90;;;;;;5043433;28;20201;-89
2022/01/16 13:36:03;;;;;;;18.80;11.60;;;4.20;99.90;;;;;;5051068;28;20170;-89
2022/01/16 13:38:30;;;;;;;20.30;12.07;;;4.10;99.90;;;;;;5032067;28;20175;-89
2022/01/16 13:40:56;;;;;;;24.07;14.63;;;4.00;99.90;;;;;;5033260;28;20197;-89